Portada
METAR-TAF:

METAR-TAF

Aeroports :

Chatham Municipal Airport

Chatham, Massachusetts, Estats Units d'Amèrica

latitud: 41-41-15N, longitud: 069-59-36W, altitud: 20 m

Observació

L'informe es va fer fa 18 minuts, a les 22:52 UTC
Vent 6 kt amb direcció variable
Temperatura 6°C
Humitat 87%
Pressió 1003 hPa
Visibilitat: 16.1 km
Cel ennuvolat a una alçada de 4700 ft
Cel cobert a una alçada de 7500 ft
pluja

METAR: KCQX 222252Z AUTO VRB06KT 10SM -RA BKN047 OVC075 06/04 A2961 RMK AO2 SLP029 P0006 T00610044

Hora: 18:10 (23:10 UTC)


TAF: manca

Observacions i pronòstics meteorològics de més de 4000 aeroports (METAR i TAF).

Les estacions disponibles són els punts grocs i vermells al mapa.

Posi el ratolí al punt desitjat per veure el nom de l'estació.

Feu clic per veure les observacions i els pronòstics meteorològics.

Per canviar el mapa: feu clic els botons verds amb una creu de color negre per apropar; al botó verd amb un guió per allunyar la imatge; o en les fletxes verdes per a mapes adjacents.


METAR-TAF: